臺北終端管制區 - 桃園北區雷達席

METAR RCTP 161500Z 04014KT 9999 FEW010 BKN016 BKN040 18/15 Q1021 NOSIG RMK A3017=

站台狀態:Online
最後更新:2018-12-16 23:15:02